Terminal Aerodrome Forecast
Issued by NWS Paducah, KY

Home | Current Version | Previous Version | Text Only | Print | Product List | Glossary On
Versions: 1 2 3 4 5 6 7 8 9 10 11 12 13 14 15 16 17 18
611
FTUS43 KPAH 210917 AAB
TAFPAH
TAF AMD
KPAH 210917Z 2109/2206 36009KT P6SM OVC011
     FM212100 36010KT P6SM BKN020
     FM220100 VRB03KT P6SM SCT025=

USA.gov is the U.S. government's official web portal to all federal, state and local government web resources and services.